Time;durP1;ratioP1;P1;durP2;ratioP2;P2;SDS_P1;SDS_P2;PMS_P1;PMS_P2;Temp;Humidity;BMP_temperature;BMP_pressure;BME280_temperature;BME280_humidity;BME280_pressure;Samples;Min_cycle;Max_cycle;Signal;HPM_P1;HPM_P2
2021/07/10 00:00:17;;;;;;;21.35;19.08;;;16.30;99.90;;;;;;5015429;28;20033;-62
2021/07/10 00:02:43;;;;;;;21.90;19.35;;;16.40;99.90;;;;;;5015582;28;20088;-62
2021/07/10 00:05:13;;;;;;;22.10;18.60;;;16.30;99.90;;;;;;5015230;28;20088;-61
2021/07/10 00:07:40;;;;;;;20.42;16.98;;;16.30;99.90;;;;;;5012921;28;20045;-60
2021/07/10 00:10:09;;;;;;;22.25;18.75;;;16.40;99.90;;;;;;5015295;28;20037;-60
2021/07/10 00:12:35;;;;;;;22.83;19.02;;;16.20;99.90;;;;;;5015568;28;20030;-61
2021/07/10 00:15:00;;;;;;;21.02;18.15;;;16.30;99.90;;;;;;5015458;28;20022;-61
2021/07/10 00:17:26;;;;;;;20.45;18.30;;;16.50;99.90;;;;;;5014695;28;20045;-61
2021/07/10 00:19:52;;;;;;;21.27;18.90;;;16.30;99.90;;;;;;5015323;28;20034;-61
2021/07/10 00:22:21;;;;;;;21.55;17.90;;;16.20;99.90;;;;;;5015049;28;20026;-62
2021/07/10 00:24:46;;;;;;;21.83;19.13;;;16.30;99.90;;;;;;5014105;28;20026;-61
2021/07/10 00:27:12;;;;;;;23.55;19.40;;;16.30;99.90;;;;;;5013507;28;20478;-61
2021/07/10 00:29:38;;;;;;;20.98;18.80;;;16.30;99.90;;;;;;5014712;28;20045;-61
2021/07/10 00:32:04;;;;;;;20.92;18.70;;;16.30;99.90;;;;;;5015213;28;20421;-61
2021/07/10 00:34:30;;;;;;;21.55;19.42;;;16.30;99.90;;;;;;5014930;28;20034;-60
2021/07/10 00:36:55;;;;;;;21.35;18.52;;;16.20;99.90;;;;;;5013537;28;20474;-59
2021/07/10 00:39:21;;;;;;;20.58;18.27;;;16.20;99.90;;;;;;5015194;28;20481;-59
2021/07/10 00:41:47;;;;;;;22.02;19.35;;;16.30;99.90;;;;;;5014028;28;20694;-62
2021/07/10 00:44:12;;;;;;;21.42;19.13;;;16.30;99.90;;;;;;5014742;28;20390;-62
2021/07/10 00:46:38;;;;;;;23.25;19.15;;;16.30;99.90;;;;;;5014670;28;20034;-62
2021/07/10 00:49:04;;;;;;;20.48;18.08;;;16.30;99.90;;;;;;5013173;28;20077;-62
2021/07/10 00:51:29;;;;;;;25.90;19.27;;;16.40;99.90;;;;;;5014896;28;20037;-62
2021/07/10 00:53:55;;;;;;;23.30;19.50;;;16.30;99.90;;;;;;5014174;28;20068;-62
2021/07/10 00:56:21;;;;;;;21.52;18.50;;;16.40;99.90;;;;;;5013864;28;20137;-60
2021/07/10 00:58:48;;;;;;;25.13;20.10;;;16.40;99.90;;;;;;5014797;28;20121;-63
2021/07/10 01:01:14;;;;;;;21.10;18.48;;;16.40;99.90;;;;;;5014699;28;20033;-62
2021/07/10 01:03:44;;;;;;;22.90;18.90;;;16.50;99.90;;;;;;5014324;28;20030;-63
2021/07/10 01:06:10;;;;;;;24.40;19.58;;;16.40;99.90;;;;;;5014426;28;20390;-61
2021/07/10 01:08:36;;;;;;;23.10;18.23;;;16.40;99.90;;;;;;5014887;28;20030;-62
2021/07/10 01:11:02;;;;;;;24.27;19.83;;;16.40;99.90;;;;;;5014218;28;20061;-60
2021/07/10 01:13:28;;;;;;;21.92;19.63;;;16.40;99.90;;;;;;5014835;28;20116;-61
2021/07/10 01:15:54;;;;;;;22.02;18.80;;;16.40;99.90;;;;;;5014108;28;20124;-61
2021/07/10 01:18:20;;;;;;;23.17;19.05;;;16.30;99.90;;;;;;5013806;28;20425;-62
2021/07/10 01:20:48;;;;;;;21.90;19.52;;;16.30;99.90;;;;;;5014871;28;20435;-62
2021/07/10 01:23:14;;;;;;;24.95;20.30;;;16.30;99.90;;;;;;5014359;28;20048;-61
2021/07/10 01:25:39;;;;;;;22.50;20.02;;;16.30;99.90;;;;;;5013900;28;20060;-61
2021/07/10 01:28:07;;;;;;;21.75;17.95;;;16.40;99.90;;;;;;5013884;28;20042;-61
2021/07/10 01:30:35;;;;;;;21.88;19.65;;;16.40;99.90;;;;;;5014087;28;20486;-62
2021/07/10 01:33:00;;;;;;;21.42;18.63;;;16.40;99.90;;;;;;5014479;28;20057;-63
2021/07/10 01:35:26;;;;;;;21.13;19.00;;;16.30;99.90;;;;;;5013706;28;20030;-62
2021/07/10 01:37:52;;;;;;;21.40;17.70;;;16.30;99.90;;;;;;5013761;28;20137;-61
2021/07/10 01:40:19;;;;;;;22.23;19.52;;;16.30;99.90;;;;;;5014195;28;20049;-62
2021/07/10 01:42:45;;;;;;;21.70;18.48;;;16.20;99.90;;;;;;5012606;28;20034;-61
2021/07/10 01:45:12;;;;;;;19.48;17.48;;;16.20;99.90;;;;;;5012627;28;20053;-62
2021/07/10 01:47:39;;;;;;;25.52;19.65;;;16.20;99.90;;;;;;5013615;28;20370;-62
2021/07/10 01:50:06;;;;;;;21.75;18.13;;;16.20;99.90;;;;;;5012390;28;20108;-62
2021/07/10 01:52:33;;;;;;;23.38;19.67;;;16.20;99.90;;;;;;5013787;28;20685;-62
2021/07/10 01:54:58;;;;;;;24.52;19.75;;;16.10;99.90;;;;;;5014245;28;20315;-61
2021/07/10 01:57:24;;;;;;;22.92;20.50;;;16.00;99.90;;;;;;5012928;28;20088;-61
2021/07/10 01:59:49;;;;;;;21.13;18.88;;;16.00;99.90;;;;;;5014643;28;20065;-61
2021/07/10 02:02:15;;;;;;;21.00;17.70;;;16.00;99.90;;;;;;5013820;28;20588;-62
2021/07/10 02:04:48;;;;;;;24.60;18.50;;;16.00;99.90;;;;;;5013334;28;20512;-61
2021/07/10 02:07:14;;;;;;;21.05;18.33;;;16.10;99.90;;;;;;5013242;28;20092;-61
2021/07/10 02:09:41;;;;;;;25.50;19.63;;;16.10;99.90;;;;;;5012253;28;20042;-62
2021/07/10 02:12:07;;;;;;;24.85;19.05;;;16.10;99.90;;;;;;5013395;28;20125;-62
2021/07/10 02:14:32;;;;;;;27.75;18.70;;;16.00;99.90;;;;;;5012240;28;20069;-61
2021/07/10 02:16:59;;;;;;;23.48;20.15;;;16.10;99.90;;;;;;5013098;28;20037;-61
2021/07/10 02:19:24;;;;;;;21.90;19.55;;;16.10;99.90;;;;;;5013039;28;20052;-61
2021/07/10 02:21:50;;;;;;;26.90;20.58;;;16.10;99.90;;;;;;5013512;28;20064;-62
2021/07/10 02:24:16;;;;;;;24.80;19.63;;;16.00;99.90;;;;;;5012964;28;20489;-61
2021/07/10 02:26:42;;;;;;;23.35;18.83;;;16.10;99.90;;;;;;5013138;28;20127;-63
2021/07/10 02:29:07;;;;;;;23.83;18.17;;;16.00;99.90;;;;;;5012956;28;20513;-61
2021/07/10 02:31:34;;;;;;;23.05;19.08;;;16.10;99.90;;;;;;5013161;28;20106;-62
2021/07/10 02:34:00;;;;;;;18.45;16.45;;;16.10;99.90;;;;;;5013106;28;20444;-61
2021/07/10 02:36:26;;;;;;;20.55;18.08;;;16.10;99.90;;;;;;5012631;28;20056;-62
2021/07/10 02:38:51;;;;;;;22.13;17.23;;;16.10;99.90;;;;;;5012913;28;20068;-62
2021/07/10 02:41:17;;;;;;;26.77;23.33;;;16.10;99.90;;;;;;5011979;28;20500;-63
2021/07/10 02:43:43;;;;;;;46.42;37.95;;;16.10;99.90;;;;;;5012761;28;20025;-62
2021/07/10 02:46:08;;;;;;;24.48;20.17;;;16.10;99.90;;;;;;5012885;28;20647;-62
2021/07/10 02:48:34;;;;;;;21.45;18.15;;;16.10;99.90;;;;;;5012665;28;20383;-62
2021/07/10 02:51:00;;;;;;;24.08;17.55;;;16.00;99.90;;;;;;5012833;28;20100;-62
2021/07/10 02:53:26;;;;;;;22.08;15.40;;;16.00;99.90;;;;;;5012915;28;20066;-61
2021/07/10 02:55:51;;;;;;;20.63;15.77;;;16.10;99.90;;;;;;5012331;28;20104;-61
2021/07/10 02:58:17;;;;;;;21.42;16.38;;;16.10;99.90;;;;;;5012688;28;20049;-61
2021/07/10 03:00:43;;;;;;;17.75;15.85;;;16.00;99.90;;;;;;5011438;28;20498;-61
2021/07/10 03:03:08;;;;;;;22.70;15.20;;;16.00;99.90;;;;;;5012329;28;20490;-61
2021/07/10 03:05:34;;;;;;;21.27;16.10;;;16.00;99.90;;;;;;5012404;28;20049;-62
2021/07/10 03:08:01;;;;;;;19.80;16.05;;;15.80;99.90;;;;;;5012050;28;20135;-62
2021/07/10 03:10:27;;;;;;;24.17;14.30;;;15.80;99.90;;;;;;5011254;28;20041;-62
2021/07/10 03:12:57;;;;;;;22.85;15.48;;;15.80;99.90;;;;;;5012823;28;20029;-62
2021/07/10 03:15:23;;;;;;;18.63;14.40;;;15.80;99.90;;;;;;5011872;28;20398;-61
2021/07/10 03:17:49;;;;;;;19.75;14.05;;;15.90;99.90;;;;;;5012095;28;20033;-61
2021/07/10 03:20:17;;;;;;;21.30;15.80;;;15.80;99.90;;;;;;5012198;28;20032;-60
2021/07/10 03:22:42;;;;;;;21.92;14.52;;;15.70;99.90;;;;;;5012439;28;20029;-62
2021/07/10 03:25:09;;;;;;;22.48;14.50;;;15.70;99.90;;;;;;5012211;28;20038;-61
2021/07/10 03:27:36;;;;;;;18.00;14.40;;;15.70;99.90;;;;;;5011678;28;20042;-63
2021/07/10 03:30:04;;;;;;;17.65;14.07;;;15.70;99.90;;;;;;5012432;28;20034;-61
2021/07/10 03:32:30;;;;;;;20.77;13.73;;;15.70;99.90;;;;;;5012197;28;20081;-62
2021/07/10 03:34:55;;;;;;;23.88;13.60;;;15.80;99.90;;;;;;5012444;28;20042;-61
2021/07/10 03:37:21;;;;;;;20.42;13.85;;;15.70;99.90;;;;;;5011638;28;20068;-61
2021/07/10 03:39:47;;;;;;;22.73;13.70;;;15.60;99.90;;;;;;5012425;28;20551;-61
2021/07/10 03:42:12;;;;;;;20.98;14.73;;;15.70;99.90;;;;;;5011186;28;20029;-61
2021/07/10 03:44:38;;;;;;;22.00;14.20;;;15.60;99.90;;;;;;5012133;28;20057;-61
2021/07/10 03:47:03;;;;;;;22.85;14.07;;;15.60;99.90;;;;;;5012056;28;20029;-62
2021/07/10 03:49:29;;;;;;;20.88;13.65;;;15.60;99.90;;;;;;5011069;28;20509;-62
2021/07/10 03:51:55;;;;;;;24.00;13.27;;;15.60;99.90;;;;;;5011976;28;20030;-62
2021/07/10 03:54:20;;;;;;;23.42;13.35;;;15.60;99.90;;;;;;5011307;28;20112;-62
2021/07/10 03:56:46;;;;;;;15.48;13.25;;;15.70;99.90;;;;;;5011972;28;20034;-61
2021/07/10 03:59:12;;;;;;;18.92;14.05;;;15.50;99.90;;;;;;5012622;28;20042;-62
2021/07/10 04:01:41;;;;;;;21.88;14.48;;;15.60;99.90;;;;;;5011891;28;20124;-62
2021/07/10 04:04:08;;;;;;;19.00;13.85;;;15.60;99.90;;;;;;4995052;28;20110;-62
2021/07/10 04:06:34;;;;;;;21.75;14.18;;;15.50;99.90;;;;;;5011715;28;20144;-61
2021/07/10 04:09:00;;;;;;;19.73;14.68;;;15.60;99.90;;;;;;5011834;28;20100;-63
2021/07/10 04:11:25;;;;;;;21.38;13.60;;;15.50;99.90;;;;;;5012039;28;20431;-63
2021/07/10 04:13:51;;;;;;;26.88;15.05;;;15.60;99.90;;;;;;5010890;28;20034;-61
2021/07/10 04:16:17;;;;;;;21.55;13.82;;;15.60;99.90;;;;;;5012158;28;20397;-61
2021/07/10 04:18:42;;;;;;;27.30;14.75;;;15.60;99.90;;;;;;5011572;28;20045;-61
2021/07/10 04:21:08;;;;;;;17.83;13.50;;;15.70;99.90;;;;;;5012140;28;20084;-61
2021/07/10 04:23:33;;;;;;;23.58;15.55;;;15.80;99.90;;;;;;5011964;28;20096;-62
2021/07/10 04:25:59;;;;;;;17.15;13.35;;;15.70;99.90;;;;;;5012022;28;20426;-63
2021/07/10 04:28:24;;;;;;;22.40;13.95;;;15.80;99.90;;;;;;5011706;28;20034;-61
2021/07/10 04:30:50;;;;;;;21.13;13.27;;;15.70;99.90;;;;;;5011517;28;20076;-61
2021/07/10 04:33:16;;;;;;;18.98;14.10;;;15.80;99.90;;;;;;5015215;28;20464;-62
2021/07/10 04:35:42;;;;;;;25.00;14.07;;;15.70;99.90;;;;;;5014911;28;20038;-61
2021/07/10 04:38:07;;;;;;;17.70;14.20;;;15.80;99.90;;;;;;5015257;28;20540;-62
2021/07/10 04:40:33;;;;;;;23.00;14.15;;;15.80;99.90;;;;;;5015219;28;20029;-62
2021/07/10 04:43:02;;;;;;;20.13;13.82;;;15.70;99.90;;;;;;5015841;28;20091;-61
2021/07/10 04:45:28;;;;;;;20.10;13.95;;;15.70;99.90;;;;;;5014711;28;20083;-62
2021/07/10 04:47:54;;;;;;;26.25;14.45;;;15.70;99.90;;;;;;5015960;28;20169;-62
2021/07/10 04:50:22;;;;;;;21.73;14.68;;;15.80;99.90;;;;;;5014606;28;20066;-62
2021/07/10 04:52:48;;;;;;;18.35;13.68;;;15.90;99.90;;;;;;5015262;28;20385;-62
2021/07/10 04:55:15;;;;;;;21.80;13.52;;;15.80;99.90;;;;;;5014989;28;20037;-61
2021/07/10 04:57:42;;;;;;;25.88;15.27;;;15.90;99.90;;;;;;5014699;28;20065;-62
2021/07/10 05:00:08;;;;;;;25.02;14.75;;;16.00;99.90;;;;;;5014423;28;20042;-63
2021/07/10 05:02:34;;;;;;;22.00;13.93;;;15.90;99.90;;;;;;5014897;28;20069;-64
2021/07/10 05:05:00;;;;;;;18.33;14.35;;;16.00;99.90;;;;;;5014719;28;20061;-62
2021/07/10 05:07:25;;;;;;;21.27;13.35;;;16.10;99.90;;;;;;5014416;28;20034;-61
2021/07/10 05:09:51;;;;;;;23.60;14.35;;;16.10;99.90;;;;;;5014531;28;20026;-61
2021/07/10 05:12:20;;;;;;;21.08;15.35;;;16.10;99.90;;;;;;5014744;28;20057;-61
2021/07/10 05:14:46;;;;;;;24.90;13.63;;;16.20;99.90;;;;;;5014629;28;20026;-61
2021/07/10 05:17:12;;;;;;;18.90;13.77;;;16.30;99.90;;;;;;5014054;28;20470;-61
2021/07/10 05:19:37;;;;;;;16.52;12.65;;;16.40;99.90;;;;;;5014692;28;20049;-62
2021/07/10 05:22:03;;;;;;;30.65;14.60;;;16.20;99.90;;;;;;5013510;28;20072;-62
2021/07/10 05:24:29;;;;;;;22.90;14.05;;;16.30;99.90;;;;;;5014218;28;20044;-62
2021/07/10 05:26:54;;;;;;;23.08;13.40;;;16.30;99.90;;;;;;5013992;28;20126;-62
2021/07/10 05:29:20;;;;;;;25.35;13.65;;;16.30;99.90;;;;;;5012931;28;20398;-62
2021/07/10 05:31:46;;;;;;;22.27;14.25;;;16.50;99.90;;;;;;4996535;28;20120;-62
2021/07/10 05:34:12;;;;;;;25.80;14.52;;;16.60;99.90;;;;;;5014189;28;20026;-62
2021/07/10 05:36:38;;;;;;;20.80;13.93;;;16.70;99.90;;;;;;5012296;28;20139;-62
2021/07/10 05:39:04;;;;;;;23.42;15.68;;;16.70;99.90;;;;;;5014262;28;20038;-62
2021/07/10 05:41:33;;;;;;;26.20;14.88;;;16.60;99.90;;;;;;5014249;28;20136;-62
2021/07/10 05:43:59;;;;;;;27.10;15.93;;;16.60;99.90;;;;;;5012669;28;20024;-61
2021/07/10 05:46:24;;;;;;;22.05;15.38;;;16.50;99.90;;;;;;5013437;28;20116;-62
2021/07/10 05:48:50;;;;;;;20.13;15.60;;;16.60;99.90;;;;;;5013817;28;20041;-61
2021/07/10 05:51:16;;;;;;;24.27;15.98;;;16.60;99.90;;;;;;5014055;28;20485;-60
2021/07/10 05:53:41;;;;;;;21.05;14.77;;;16.80;99.90;;;;;;5012888;28;20034;-62
2021/07/10 05:56:07;;;;;;;22.05;15.65;;;16.80;99.90;;;;;;5012319;28;20049;-63
2021/07/10 05:58:33;;;;;;;27.08;17.27;;;16.90;99.90;;;;;;5013956;28;20034;-62
2021/07/10 06:00:58;;;;;;;20.75;16.00;;;16.90;99.90;;;;;;5012696;28;20038;-62
2021/07/10 06:03:24;;;;;;;20.95;15.00;;;17.00;99.90;;;;;;5014262;28;20063;-62
2021/07/10 06:05:50;;;;;;;20.50;13.70;;;17.10;99.90;;;;;;5014239;28;20042;-62
2021/07/10 06:08:15;;;;;;;18.08;14.95;;;17.30;99.90;;;;;;5013091;28;20050;-62
2021/07/10 06:10:41;;;;;;;19.90;14.95;;;17.30;99.90;;;;;;5013740;28;20038;-62
2021/07/10 06:13:07;;;;;;;20.13;15.40;;;17.40;99.90;;;;;;5013663;28;20482;-61
2021/07/10 06:15:32;;;;;;;29.45;15.68;;;17.30;99.90;;;;;;5013053;28;20045;-61
2021/07/10 06:17:58;;;;;;;23.77;14.70;;;17.50;99.90;;;;;;5013192;28;20064;-62
2021/07/10 06:20:24;;;;;;;17.65;14.07;;;17.50;99.90;;;;;;5013733;28;20030;-64
2021/07/10 06:22:51;;;;;;;22.08;15.40;;;17.70;99.90;;;;;;5013017;28;20041;-62
2021/07/10 06:25:18;;;;;;;21.48;13.40;;;17.70;99.90;;;;;;5013519;28;20386;-62
2021/07/10 06:27:45;;;;;;;22.45;15.13;;;17.90;99.90;;;;;;5013024;28;20053;-63
2021/07/10 06:30:12;;;;;;;21.52;16.33;;;18.00;99.20;;;;;;5012817;28;20026;-62
2021/07/10 06:32:38;;;;;;;21.27;15.30;;;17.80;99.40;;;;;;5011784;28;20030;-62
2021/07/10 06:35:06;;;;;;;18.48;14.60;;;18.00;99.20;;;;;;5013340;28;20474;-63
2021/07/10 06:37:31;;;;;;;19.00;14.32;;;17.90;99.10;;;;;;5012367;28;20398;-63
2021/07/10 06:39:57;;;;;;;19.23;14.60;;;17.90;99.10;;;;;;5013559;28;20029;-61
2021/07/10 06:42:22;;;;;;;22.50;15.35;;;18.10;98.90;;;;;;5013069;28;20180;-61
2021/07/10 06:44:48;;;;;;;18.08;15.13;;;18.10;98.90;;;;;;5013408;28;20042;-62
2021/07/10 06:47:14;;;;;;;20.15;15.35;;;18.10;99.00;;;;;;5013715;28;20539;-64
2021/07/10 06:49:40;;;;;;;17.77;15.48;;;18.00;99.30;;;;;;5012770;28;20029;-62
2021/07/10 06:52:07;;;;;;;20.73;14.77;;;18.00;99.20;;;;;;5013399;28;20037;-63
2021/07/10 06:54:33;;;;;;;17.77;15.50;;;18.10;99.40;;;;;;5011564;28;20042;-64
2021/07/10 06:56:59;;;;;;;20.15;14.40;;;18.10;99.70;;;;;;5011318;28;20036;-62
2021/07/10 06:59:24;;;;;;;18.90;14.98;;;18.20;99.30;;;;;;5012656;28;20286;-60
2021/07/10 07:01:51;;;;;;;17.02;15.23;;;18.30;99.20;;;;;;5012905;28;20045;-62
2021/07/10 07:04:20;;;;;;;17.55;14.50;;;18.30;99.00;;;;;;5012670;28;20096;-62
2021/07/10 07:06:46;;;;;;;20.80;16.63;;;18.50;99.10;;;;;;5012530;28;20065;-62
2021/07/10 07:09:12;;;;;;;19.90;15.27;;;18.50;98.80;;;;;;5012591;28;20038;-61
2021/07/10 07:11:38;;;;;;;18.88;16.73;;;18.50;98.80;;;;;;5012055;28;20057;-62
2021/07/10 07:14:07;;;;;;;18.80;15.88;;;18.50;98.50;;;;;;5012581;28;20042;-62
2021/07/10 07:16:33;;;;;;;19.30;15.90;;;18.70;98.40;;;;;;5011911;28;20026;-62
2021/07/10 07:18:59;;;;;;;22.67;16.85;;;18.90;97.80;;;;;;5005715;28;20540;-62
2021/07/10 07:21:26;;;;;;;21.02;15.23;;;19.10;97.80;;;;;;4993342;28;20029;-63
2021/07/10 07:23:52;;;;;;;17.80;15.55;;;19.00;97.80;;;;;;4991807;28;20041;-62
2021/07/10 07:26:19;;;;;;;18.23;16.25;;;19.00;98.00;;;;;;4992960;28;20418;-62
2021/07/10 07:28:46;;;;;;;20.08;14.95;;;19.10;97.80;;;;;;4993110;28;20097;-62
2021/07/10 07:31:12;;;;;;;18.80;16.73;;;19.20;97.40;;;;;;4992840;28;20027;-61
2021/07/10 07:33:38;;;;;;;24.65;16.98;;;19.30;97.10;;;;;;5002650;28;20160;-62
2021/07/10 07:36:04;;;;;;;23.20;18.90;;;19.20;97.40;;;;;;5011250;28;20477;-63
2021/07/10 07:38:31;;;;;;;20.17;17.55;;;19.30;96.80;;;;;;5011788;28;20489;-61
2021/07/10 07:40:59;;;;;;;18.35;16.55;;;19.30;97.00;;;;;;5012090;28;20052;-62
2021/07/10 07:43:25;;;;;;;19.63;17.65;;;19.40;97.20;;;;;;5011599;28;20046;-61
2021/07/10 07:45:51;;;;;;;20.27;17.85;;;19.20;97.10;;;;;;5011979;28;20033;-62
2021/07/10 07:48:18;;;;;;;24.23;18.02;;;19.10;97.40;;;;;;5010861;28;20052;-61
2021/07/10 07:50:44;;;;;;;22.48;19.65;;;19.20;97.20;;;;;;5011099;28;20026;-62
2021/07/10 07:53:09;;;;;;;20.67;17.27;;;18.90;97.40;;;;;;5012091;28;20048;-62
2021/07/10 07:55:36;;;;;;;20.90;17.25;;;19.00;97.40;;;;;;5010887;28;20037;-61
2021/07/10 07:58:03;;;;;;;24.33;17.40;;;19.10;97.80;;;;;;5012118;28;20026;-61
2021/07/10 08:00:29;;;;;;;22.15;17.13;;;19.10;97.10;;;;;;5011550;28;20041;-60
2021/07/10 08:02:55;;;;;;;23.98;16.98;;;19.30;96.90;;;;;;5011624;28;20044;-61
2021/07/10 08:05:20;;;;;;;21.42;16.20;;;19.40;97.10;;;;;;5010326;28;20497;-60
2021/07/10 08:07:46;;;;;;;17.92;16.02;;;19.60;96.50;;;;;;5011514;28;20071;-60
2021/07/10 08:10:14;;;;;;;19.38;16.50;;;19.80;96.30;;;;;;5013689;28;20128;-61
2021/07/10 08:12:40;;;;;;;19.67;16.70;;;19.60;96.00;;;;;;5015547;28;20497;-61
2021/07/10 08:15:08;;;;;;;19.92;16.58;;;19.70;96.30;;;;;;5012374;28;20030;-60
2021/07/10 08:17:34;;;;;;;22.45;17.67;;;19.80;96.20;;;;;;5015071;28;20056;-61
2021/07/10 08:19:59;;;;;;;17.23;15.50;;;19.50;96.00;;;;;;5013700;28;20062;-62
2021/07/10 08:22:25;;;;;;;18.73;16.25;;;19.60;96.70;;;;;;5015216;28;20367;-60
2021/07/10 08:24:51;;;;;;;18.00;15.13;;;19.80;96.30;;;;;;5013874;28;20028;-61
2021/07/10 08:27:16;;;;;;;18.13;16.20;;;20.00;96.00;;;;;;5015006;28;20049;-61
2021/07/10 08:29:42;;;;;;;19.30;16.33;;;19.80;95.70;;;;;;5014816;28;20111;-60
2021/07/10 08:32:08;;;;;;;18.48;16.65;;;19.50;95.40;;;;;;5014920;28;20033;-60
2021/07/10 08:34:34;;;;;;;23.83;17.23;;;19.40;96.30;;;;;;5013839;28;20427;-61
2021/07/10 08:37:02;;;;;;;20.08;17.00;;;19.40;96.40;;;;;;5013658;28;20034;-60
2021/07/10 08:39:28;;;;;;;19.98;16.70;;;19.40;95.90;;;;;;5012166;28;20026;-60
2021/07/10 08:41:54;;;;;;;19.48;17.35;;;19.70;95.80;;;;;;5014910;28;20501;-61
2021/07/10 08:44:20;;;;;;;18.85;16.90;;;19.80;95.30;;;;;;5014889;28;20115;-61
2021/07/10 08:46:47;;;;;;;18.60;16.70;;;20.00;95.20;;;;;;5013634;28;20025;-62
2021/07/10 08:49:16;;;;;;;18.60;16.60;;;20.20;95.00;;;;;;5014480;28;20038;-59
2021/07/10 08:51:48;;;;;;;21.50;18.33;;;20.30;94.70;;;;;;5014474;28;20045;-61
2021/07/10 08:54:17;;;;;;;19.40;16.95;;;20.20;95.00;;;;;;5014691;28;20042;-61
2021/07/10 08:56:43;;;;;;;19.65;16.95;;;20.30;95.20;;;;;;5013983;28;20078;-62
2021/07/10 08:59:11;;;;;;;24.08;18.02;;;20.30;95.50;;;;;;5014411;28;20025;-61
2021/07/10 09:01:37;;;;;;;22.48;18.50;;;20.30;95.00;;;;;;5014009;28;20034;-60
2021/07/10 09:04:03;;;;;;;19.92;17.50;;;20.20;94.90;;;;;;5014916;28;20034;-61
2021/07/10 09:06:29;;;;;;;20.70;17.90;;;20.20;95.30;;;;;;5011374;28;20060;-62
2021/07/10 09:08:56;;;;;;;21.90;19.58;;;20.20;95.50;;;;;;5014173;28;20072;-60
2021/07/10 09:11:22;;;;;;;22.55;19.73;;;20.20;95.10;;;;;;5013804;28;20065;-61
2021/07/10 09:13:50;;;;;;;25.63;20.83;;;20.40;95.10;;;;;;5012448;28;20026;-61
2021/07/10 09:16:22;;;;;;;23.88;19.48;;;20.40;94.80;;;;;;5011871;28;20041;-61
2021/07/10 09:18:50;;;;;;;22.17;18.27;;;20.50;94.40;;;;;;5012810;28;20025;-61
2021/07/10 09:21:50;;;;;;;22.05;19.75;;;20.70;93.90;;;;;;5012445;28;20065;-60
2021/07/10 09:24:22;;;;;;;22.25;18.98;;;20.80;93.80;;;;;;5011379;28;20489;-60
2021/07/10 09:26:53;;;;;;;21.98;18.38;;;20.70;93.60;;;;;;5013303;28;20038;-62
2021/07/10 09:29:21;;;;;;;24.25;18.30;;;20.70;93.80;;;;;;5012630;28;20026;-63
2021/07/10 09:31:57;;;;;;;27.42;19.02;;;20.80;94.00;;;;;;5015372;28;20096;-60
2021/07/10 09:34:36;;;;;;;23.38;18.13;;;20.90;93.40;;;;;;5013859;28;20153;-61
2021/07/10 09:37:03;;;;;;;23.10;18.52;;;21.10;92.70;;;;;;5013508;28;20041;-61
2021/07/10 09:39:32;;;;;;;29.55;19.17;;;21.50;91.80;;;;;;5013465;28;20030;-61
2021/07/10 09:42:00;;;;;;;20.92;18.73;;;21.50;91.60;;;;;;5012384;28;20551;-59
2021/07/10 09:44:40;;;;;;;21.33;18.00;;;21.50;91.30;;;;;;5013919;28;20045;-60
2021/07/10 09:47:06;;;;;;;21.38;18.15;;;21.60;91.50;;;;;;5013569;28;20050;-59
2021/07/10 09:49:32;;;;;;;21.00;18.77;;;21.50;91.90;;;;;;5013697;28;20137;-61
2021/07/10 09:52:10;;;;;;;20.35;18.25;;;21.40;91.60;;;;;;5014279;28;20029;-60
2021/07/10 09:54:38;;;;;;;24.42;19.02;;;21.50;92.00;;;;;;5013370;28;20041;-60
2021/07/10 09:57:08;;;;;;;22.92;18.92;;;21.40;91.90;;;;;;5012896;28;20033;-60
2021/07/10 09:59:36;;;;;;;20.83;18.67;;;21.50;91.50;;;;;;5013329;28;20046;-59
2021/07/10 10:02:10;;;;;;;21.40;19.13;;;21.70;90.70;;;;;;5013201;28;20033;-60
2021/07/10 10:04:35;;;;;;;21.73;19.52;;;21.70;90.60;;;;;;5011764;28;20131;-60
2021/07/10 10:07:07;;;;;;;23.05;19.70;;;21.70;90.40;;;;;;5013090;28;20458;-61
2021/07/10 10:09:33;;;;;;;23.80;20.60;;;21.70;90.50;;;;;;5013604;28;20405;-60
2021/07/10 10:12:05;;;;;;;24.95;19.67;;;21.80;90.20;;;;;;5014074;28;20030;-55
2021/07/10 10:14:51;;;;;;;23.38;19.73;;;21.90;90.20;;;;;;5014112;28;20041;-59
2021/07/10 10:17:22;;;;;;;21.95;19.65;;;21.90;89.40;;;;;;5012982;28;20109;-57
2021/07/10 10:19:49;;;;;;;24.70;22.13;;;21.60;89.10;;;;;;5001302;28;20054;-57
2021/07/10 10:22:16;;;;;;;27.42;21.85;;;21.50;90.20;;;;;;5013696;28;20548;-58
2021/07/10 10:24:48;;;;;;;23.25;20.60;;;21.60;88.40;;;;;;5013769;28;20026;-55
2021/07/10 10:27:15;;;;;;;21.10;18.98;;;21.50;89.40;;;;;;5013135;28;20500;-61
2021/07/10 10:29:41;;;;;;;20.67;18.67;;;21.80;90.10;;;;;;5012177;28;20042;-58
2021/07/10 10:32:08;;;;;;;21.98;19.52;;;22.00;90.10;;;;;;5013810;28;20030;-54
2021/07/10 10:34:35;;;;;;;20.05;17.95;;;22.00;89.00;;;;;;5013288;28;20029;-56
2021/07/10 10:37:02;;;;;;;19.58;17.55;;;22.20;88.00;;;;;;5013731;28;20053;-56
2021/07/10 10:39:30;;;;;;;20.40;17.38;;;22.20;87.90;;;;;;5013032;28;20036;-56
2021/07/10 10:42:02;;;;;;;18.35;15.95;;;22.30;86.60;;;;;;5013266;28;20452;-54
2021/07/10 10:46:56;;;;;;;20.38;15.80;;;22.60;87.00;;;;;;5051054;28;19921;-59
2021/07/10 10:49:31;;;;;;;17.25;15.45;;;22.90;85.50;;;;;;5052940;28;20480;-53
2021/07/10 10:52:23;;;;;;;18.73;16.65;;;23.00;86.10;;;;;;5044686;28;20476;-57
2021/07/10 10:55:05;;;;;;;19.98;17.85;;;22.90;84.40;;;;;;5046967;28;20017;-55
2021/07/10 10:57:47;;;;;;;20.25;16.67;;;22.80;84.30;;;;;;5044983;28;20048;-65
2021/07/10 11:00:25;;;;;;;19.55;16.00;;;22.80;85.30;;;;;;5052794;28;20033;-56
2021/07/10 11:02:58;;;;;;;18.38;15.85;;;22.80;85.90;;;;;;5052874;28;20053;-57
2021/07/10 11:05:33;;;;;;;17.10;15.40;;;22.90;86.90;;;;;;5035331;28;20041;-58
2021/07/10 11:08:17;;;;;;;17.83;16.08;;;23.10;84.40;;;;;;5034400;28;20033;-55
2021/07/10 11:10:46;;;;;;;18.67;16.73;;;23.30;83.40;;;;;;5032351;28;20026;-54
2021/07/10 11:13:39;;;;;;;17.58;15.77;;;23.20;84.60;;;;;;5032256;28;20034;-58
2021/07/10 11:16:19;;;;;;;19.10;16.55;;;23.30;84.80;;;;;;5014630;28;20392;-56
2021/07/10 11:19:03;;;;;;;18.25;16.42;;;23.30;84.00;;;;;;5032655;28;20025;-53
2021/07/10 11:21:31;;;;;;;18.80;16.77;;;23.50;83.10;;;;;;5032855;28;20497;-57
2021/07/10 11:24:15;;;;;;;16.73;15.07;;;23.70;82.50;;;;;;5032294;28;20034;-51
2021/07/10 11:27:01;;;;;;;17.13;15.43;;;23.40;83.40;;;;;;5032377;28;20112;-54
2021/07/10 11:29:32;;;;;;;18.92;15.63;;;23.40;83.50;;;;;;5021318;28;20430;-55
2021/07/10 11:32:25;;;;;;;18.25;16.48;;;23.50;83.40;;;;;;5031178;28;20034;-58
2021/07/10 11:34:59;;;;;;;18.85;16.92;;;23.50;84.10;;;;;;5046558;28;20029;-58
2021/07/10 11:37:25;;;;;;;14.30;12.90;;;23.40;83.90;;;;;;5042093;28;20507;-56
2021/07/10 11:40:08;;;;;;;16.58;14.68;;;23.80;81.20;;;;;;5051495;28;20048;-57
2021/07/10 11:42:44;;;;;;;16.15;14.40;;;24.20;80.80;;;;;;5041905;28;20087;-59
2021/07/10 11:45:14;;;;;;;16.15;14.63;;;23.80;81.80;;;;;;5054384;28;20121;-56
2021/07/10 11:47:50;;;;;;;15.60;14.00;;;23.90;81.10;;;;;;5056565;28;20055;-58
2021/07/10 11:50:38;;;;;;;18.92;14.98;;;23.90;81.80;;;;;;5045477;28;20033;-55
2021/07/10 11:53:12;;;;;;;15.43;13.88;;;23.70;82.00;;;;;;5018135;28;20025;-54
2021/07/10 11:55:41;;;;;;;15.00;13.60;;;23.70;82.20;;;;;;5035676;28;20060;-55
2021/07/10 11:58:10;;;;;;;16.40;14.48;;;23.80;81.60;;;;;;5043441;28;20036;-60
2021/07/10 12:00:37;;;;;;;14.27;12.82;;;24.00;80.90;;;;;;5055013;28;20033;-56
2021/07/10 12:03:03;;;;;;;15.20;13.73;;;24.10;80.40;;;;;;5055495;28;20373;-56
2021/07/10 12:05:33;;;;;;;14.30;12.50;;;24.10;80.10;;;;;;5054490;28;20492;-55
2021/07/10 12:08:00;;;;;;;14.73;13.35;;;24.00;79.60;;;;;;5037963;28;20036;-58
2021/07/10 12:10:27;;;;;;;14.43;12.93;;;24.10;79.60;;;;;;5039893;28;20625;-58
2021/07/10 12:12:55;;;;;;;13.50;12.10;;;23.80;80.80;;;;;;5055572;28;20033;-53
2021/07/10 12:15:23;;;;;;;15.82;14.38;;;23.80;80.50;;;;;;5055445;28;20056;-60
2021/07/10 12:17:51;;;;;;;13.65;12.23;;;23.70;82.20;;;;;;5054010;28;20033;-56
2021/07/10 12:20:22;;;;;;;13.52;11.93;;;23.70;81.60;;;;;;5041254;28;20051;-54
2021/07/10 12:22:54;;;;;;;13.10;11.55;;;23.60;80.60;;;;;;5052255;28;20064;-57
2021/07/10 12:25:22;;;;;;;13.85;12.50;;;23.60;80.10;;;;;;5051963;28;20500;-58
2021/07/10 12:27:52;;;;;;;16.15;12.27;;;23.60;81.30;;;;;;5047029;28;20029;-56
2021/07/10 12:30:17;;;;;;;14.60;13.00;;;23.80;80.40;;;;;;5055260;28;20033;-57
2021/07/10 12:32:43;;;;;;;14.63;12.98;;;23.80;81.60;;;;;;5036034;28;20567;-53